createdAt,value
2022-12-16T00:01:35.226Z,99695.75
2022-12-16T00:04:06.667Z,99703.47
2022-12-16T00:06:38.500Z,99677.44
2022-12-16T00:09:05.722Z,99690.66
2022-12-16T00:11:32.869Z,99673.91
2022-12-16T00:14:00.150Z,99686.44
2022-12-16T00:16:27.654Z,99657.78
2022-12-16T00:18:54.749Z,99666.09
2022-12-16T00:21:21.859Z,99677.53
2022-12-16T00:23:49.054Z,99659.59
2022-12-16T00:26:16.464Z,99665.00
2022-12-16T00:28:44.065Z,99681.13
2022-12-16T00:31:12.704Z,99645.47
2022-12-16T00:33:39.918Z,99643.69
2022-12-16T00:36:08.091Z,99597.59
2022-12-16T00:38:35.398Z,99639.78
2022-12-16T00:41:02.677Z,99654.41
2022-12-16T00:43:29.936Z,99655.38
2022-12-16T00:45:57.345Z,99646.78
2022-12-16T00:48:25.710Z,99595.38
2022-12-16T00:50:55.102Z,99652.53
2022-12-16T00:53:24.067Z,99652.53
2022-12-16T00:55:51.955Z,99644.91
2022-12-16T00:58:19.245Z,99646.16
2022-12-16T01:00:46.866Z,99644.38
2022-12-16T01:03:18.139Z,99649.47
2022-12-16T01:05:49.121Z,99504.38
2022-12-16T01:08:16.246Z,99594.78
2022-12-16T01:10:43.344Z,99660.03
2022-12-16T01:13:10.532Z,99656.69
2022-12-16T01:15:38.035Z,99623.69
2022-12-16T01:18:05.449Z,99631.66
2022-12-16T01:20:34.644Z,99643.78
2022-12-16T01:23:01.739Z,99661.19
2022-12-16T01:25:28.820Z,99656.69
2022-12-16T01:27:56.098Z,99666.72
2022-12-16T01:30:23.945Z,99646.78
2022-12-16T01:32:51.262Z,99596.97
2022-12-16T01:35:51.453Z,99659.47
2022-12-16T01:38:06.491Z,99641.19
2022-12-16T01:40:33.702Z,99607.28
2022-12-16T01:43:01.125Z,99653.00
2022-12-16T01:45:33.581Z,99661.69
2022-12-16T01:48:16.954Z,99641.84
2022-12-16T01:50:44.554Z,99655.03
2022-12-16T01:56:00.027Z,99662.41
2022-12-16T01:58:32.673Z,99661.63
2022-12-16T02:01:01.020Z,99664.44
2022-12-16T02:03:31.512Z,99661.03
2022-12-16T02:06:00.806Z,99665.69
2022-12-16T02:08:28.072Z,99664.91
2022-12-16T02:14:00.899Z,99648.38
2022-12-16T02:16:55.898Z,99667.09
2022-12-16T02:19:47.775Z,99677.72
2022-12-16T02:22:33.522Z,99666.66
2022-12-16T02:25:12.482Z,99666.66
2022-12-16T02:30:50.516Z,99688.28
2022-12-16T02:33:34.818Z,99662.06
2022-12-16T02:36:20.705Z,99671.75
2022-12-16T02:39:03.188Z,99674.50
2022-12-16T02:41:57.755Z,99668.78
2022-12-16T02:47:33.261Z,99674.16
2022-12-16T02:50:00.692Z,99668.59
2022-12-16T02:52:31.271Z,99672.47
2022-12-16T02:55:03.081Z,99661.31
2022-12-16T02:57:36.560Z,99667.03
2022-12-16T03:02:48.350Z,99671.16
2022-12-16T03:05:27.499Z,99666.59
2022-12-16T03:07:58.831Z,99645.84
2022-12-16T03:10:30.927Z,99682.00
2022-12-16T03:13:01.658Z,99673.34
2022-12-16T03:15:33.218Z,99693.22
2022-12-16T03:20:56.058Z,99683.03
2022-12-16T03:23:29.792Z,99686.53
2022-12-16T03:26:06.125Z,99632.94
2022-12-16T03:28:52.796Z,99686.09
2022-12-16T03:31:57.384Z,99689.72
2022-12-16T03:37:26.360Z,99691.84
2022-12-16T03:39:58.389Z,99700.28
2022-12-16T03:42:26.122Z,99697.63
2022-12-16T03:44:53.547Z,99711.44
2022-12-16T03:47:23.861Z,99708.88
2022-12-16T03:49:51.806Z,99628.66
2022-12-16T03:55:03.913Z,99714.75
2022-12-16T03:57:31.037Z,99721.53
2022-12-16T03:59:58.246Z,99707.72
2022-12-16T04:02:25.522Z,99714.69
2022-12-16T04:04:52.872Z,99639.97
2022-12-16T04:10:10.331Z,99743.69
2022-12-16T04:12:55.888Z,99732.34
2022-12-16T04:15:41.459Z,99696.22
2022-12-16T04:18:38.254Z,99741.56
2022-12-16T04:21:24.238Z,99763.66
2022-12-16T04:27:20.307Z,99773.03
2022-12-16T04:30:05.777Z,99790.09
2022-12-16T04:32:53.183Z,99783.97
2022-12-16T04:35:39.064Z,99789.34
2022-12-16T04:38:24.613Z,99786.59
2022-12-16T04:44:13.237Z,99796.00
2022-12-16T04:46:59.188Z,99802.78
2022-12-16T04:49:44.807Z,99782.44
2022-12-16T04:52:30.526Z,99808.59
2022-12-16T04:55:15.955Z,99811.06
2022-12-16T05:01:10.542Z,99832.50
2022-12-16T05:03:56.318Z,99823.59
2022-12-16T05:06:41.931Z,99769.31
2022-12-16T05:09:28.065Z,99836.00
2022-12-16T05:12:13.614Z,99852.38
2022-12-16T05:14:59.323Z,99852.53
2022-12-16T05:17:45.123Z,99841.97
2022-12-16T05:20:30.642Z,99860.38
2022-12-16T05:23:16.520Z,99855.00
2022-12-16T05:26:02.039Z,99863.44
2022-12-16T05:28:48.183Z,99856.38
2022-12-16T05:34:37.115Z,99881.75
2022-12-16T05:37:36.537Z,99896.53
2022-12-16T05:40:22.432Z,99889.22
2022-12-16T05:43:10.918Z,99846.94
2022-12-16T05:46:03.057Z,99896.16
2022-12-16T05:48:48.641Z,99898.25
2022-12-16T05:51:34.199Z,99912.50
2022-12-16T05:54:19.892Z,99918.31
2022-12-16T05:57:05.688Z,99927.06
2022-12-16T05:59:51.306Z,99935.84
2022-12-16T06:02:38.206Z,99898.22
2022-12-16T06:05:24.151Z,99957.66
2022-12-16T06:08:20.779Z,99938.84
2022-12-16T06:11:06.420Z,99971.38
2022-12-16T06:13:51.818Z,99959.03
2022-12-16T06:16:37.379Z,99971.59
2022-12-16T06:19:22.902Z,99999.13
2022-12-16T06:22:08.629Z,99982.69
2022-12-16T06:24:54.240Z,99992.97
2022-12-16T06:27:39.882Z,100011.00
2022-12-16T06:30:26.209Z,99998.66
2022-12-16T06:33:11.588Z,100031.31
2022-12-16T06:35:57.159Z,99932.41
2022-12-16T06:38:42.852Z,100037.53
2022-12-16T06:41:28.554Z,100026.06
2022-12-16T06:44:14.131Z,100039.50
2022-12-16T06:46:59.879Z,100054.38
2022-12-16T06:49:45.332Z,100060.38
2022-12-16T06:52:31.002Z,99960.56
2022-12-16T06:55:16.551Z,100076.19
2022-12-16T06:58:05.409Z,100087.34
2022-12-16T07:00:55.087Z,100096.75
2022-12-16T07:03:41.669Z,100110.28
2022-12-16T07:06:38.003Z,100116.97
2022-12-16T07:09:23.705Z,100076.75
2022-12-16T07:12:09.310Z,100129.91
2022-12-16T07:14:55.126Z,100112.25
2022-12-16T07:17:41.673Z,100086.44
2022-12-16T07:20:27.736Z,100161.75
2022-12-16T07:23:19.316Z,100158.72
2022-12-16T07:26:05.465Z,100168.53
2022-12-16T07:28:51.124Z,100181.25
2022-12-16T07:31:36.727Z,100177.06
2022-12-16T07:34:22.218Z,100127.28
2022-12-16T07:37:07.970Z,100197.13
2022-12-16T07:39:55.320Z,100212.94
2022-12-16T07:42:42.537Z,100204.00
2022-12-16T07:45:29.319Z,100188.09
2022-12-16T07:48:15.525Z,100096.44
2022-12-16T07:51:01.148Z,100218.22
2022-12-16T07:53:47.145Z,100242.25
2022-12-16T07:56:33.276Z,100243.69
2022-12-16T07:59:18.858Z,100184.16
2022-12-16T08:02:04.564Z,100256.13
2022-12-16T08:04:50.005Z,100264.28
2022-12-16T08:07:35.579Z,100208.41
2022-12-16T08:10:20.974Z,100263.28
2022-12-16T08:13:06.747Z,100255.94
2022-12-16T08:15:52.450Z,100245.13
2022-12-16T08:18:38.383Z,100281.38
2022-12-16T08:21:24.075Z,100283.59
2022-12-16T08:24:09.623Z,100300.88
2022-12-16T08:26:55.137Z,100269.34
2022-12-16T08:29:45.251Z,100268.81
2022-12-16T08:32:32.814Z,100292.69
2022-12-16T08:35:19.450Z,100267.81
2022-12-16T08:38:10.553Z,100289.38
2022-12-16T08:41:03.780Z,100274.03
2022-12-16T08:43:51.465Z,100259.66
2022-12-16T08:46:37.055Z,100278.13
2022-12-16T08:49:23.465Z,100326.13
2022-12-16T08:52:09.659Z,100328.00
2022-12-16T08:54:55.204Z,100292.97
2022-12-16T08:57:40.662Z,100324.41
2022-12-16T09:00:28.269Z,100346.16
2022-12-16T09:03:15.214Z,100357.56
2022-12-16T09:06:01.407Z,100334.13
2022-12-16T09:08:47.509Z,100357.59
2022-12-16T09:11:33.103Z,100330.66
2022-12-16T09:14:18.928Z,100381.28
2022-12-16T09:17:04.509Z,100396.78
2022-12-16T09:19:50.056Z,100342.69
2022-12-16T09:22:36.730Z,100334.66
2022-12-16T09:25:22.686Z,100395.03
2022-12-16T09:28:08.518Z,100386.22
2022-12-16T09:30:54.458Z,100381.34
2022-12-16T09:33:41.426Z,100384.03
2022-12-16T09:36:27.288Z,100354.19
2022-12-16T09:39:12.808Z,100379.94
2022-12-16T09:42:02.250Z,100400.84
2022-12-16T09:44:59.687Z,100399.66
2022-12-16T09:48:03.362Z,100424.81
2022-12-16T09:50:50.118Z,100422.47
2022-12-16T09:53:40.430Z,100427.25
2022-12-16T09:56:51.128Z,100436.22
2022-12-16T09:59:52.694Z,100418.94
2022-12-16T10:02:41.091Z,100441.31
2022-12-16T10:05:40.846Z,100388.41
2022-12-16T10:08:40.805Z,100453.19
2022-12-16T10:11:36.017Z,100408.47
2022-12-16T10:14:33.159Z,100453.09
2022-12-16T10:17:31.442Z,100471.78
2022-12-16T10:20:30.734Z,100481.84
2022-12-16T10:23:41.880Z,100479.97
2022-12-16T10:26:38.261Z,100465.03
2022-12-16T10:29:39.723Z,100491.06
2022-12-16T10:33:00.210Z,100508.09
2022-12-16T10:36:00.588Z,100446.31
2022-12-16T10:38:59.535Z,100511.41
2022-12-16T10:41:53.701Z,100531.03
2022-12-16T10:45:02.264Z,100517.09
2022-12-16T10:47:48.840Z,100474.41
2022-12-16T10:50:34.707Z,100535.03
2022-12-16T10:53:36.185Z,100547.09
2022-12-16T10:56:30.548Z,100551.19
2022-12-16T10:59:23.422Z,100550.84
2022-12-16T11:02:17.292Z,100362.13
2022-12-16T11:05:04.304Z,100556.28
2022-12-16T11:08:02.137Z,100557.72
2022-12-16T11:10:56.112Z,100572.56
2022-12-16T11:13:53.159Z,100557.25
2022-12-16T11:16:42.848Z,100505.84
2022-12-16T11:19:40.928Z,100581.97
2022-12-16T11:22:33.776Z,100467.72
2022-12-16T11:25:25.411Z,100572.13
2022-12-16T11:28:30.667Z,100602.78
2022-12-16T11:31:20.917Z,100614.44
2022-12-16T11:34:08.375Z,100588.03
2022-12-16T11:36:56.904Z,100549.22
2022-12-16T11:39:45.438Z,100621.25
2022-12-16T11:42:39.250Z,100601.94
2022-12-16T11:45:31.798Z,100627.44
2022-12-16T11:48:50.272Z,100578.53
2022-12-16T11:51:38.249Z,100642.91
2022-12-16T11:54:24.098Z,100659.53
2022-12-16T11:57:10.171Z,100666.41
2022-12-16T12:00:01.772Z,100663.63
2022-12-16T12:02:59.590Z,100678.66
2022-12-16T12:06:15.921Z,100682.56
2022-12-16T12:09:13.043Z,100657.50
2022-12-16T12:12:17.493Z,100681.47
2022-12-16T12:15:23.112Z,100679.66
2022-12-16T12:18:30.271Z,100685.31
2022-12-16T12:22:02.704Z,100690.28
2022-12-16T12:25:32.137Z,100700.16
2022-12-16T12:28:42.248Z,100615.59
2022-12-16T12:32:00.284Z,100702.47
2022-12-16T12:35:11.487Z,100700.69
2022-12-16T12:38:16.627Z,100693.53
2022-12-16T12:41:08.409Z,100716.28
2022-12-16T12:44:15.926Z,100724.56
2022-12-16T12:47:18.947Z,100721.00
2022-12-16T12:50:23.090Z,100699.56
2022-12-16T12:53:17.810Z,100735.53
2022-12-16T12:56:12.660Z,100716.44
2022-12-16T12:59:00.784Z,100686.34
2022-12-16T13:01:51.082Z,100712.75
2022-12-16T13:04:42.186Z,100674.59
2022-12-16T13:07:28.305Z,100702.06
2022-12-16T13:10:38.966Z,100749.38
2022-12-16T13:13:34.089Z,100756.00
2022-12-16T13:16:28.143Z,100759.06
2022-12-16T13:20:11.614Z,100765.53
2022-12-16T13:23:00.266Z,100761.25
2022-12-16T13:26:02.124Z,100769.03
2022-12-16T13:28:49.821Z,100768.41
2022-12-16T13:31:36.498Z,100783.16
2022-12-16T13:34:34.430Z,100787.19
2022-12-16T13:37:28.290Z,100700.09
2022-12-16T13:40:21.354Z,100801.28
2022-12-16T13:43:10.067Z,100779.59
2022-12-16T13:46:02.366Z,100806.16
2022-12-16T13:49:05.812Z,100806.59
2022-12-16T13:51:57.161Z,100819.56
2022-12-16T13:55:09.911Z,100825.66
2022-12-16T13:57:59.849Z,100833.34
2022-12-16T14:00:47.437Z,100832.31
2022-12-16T14:03:46.196Z,100829.53
2022-12-16T14:06:49.055Z,100843.25
2022-12-16T14:09:50.592Z,100854.69
2022-12-16T14:12:58.195Z,100854.06
2022-12-16T14:16:17.041Z,100848.84
2022-12-16T14:19:25.509Z,100858.38
2022-12-16T14:22:34.503Z,100840.69
2022-12-16T14:25:40.925Z,100856.84
2022-12-16T14:28:41.619Z,100858.78
2022-12-16T14:31:49.104Z,100862.88
2022-12-16T14:34:41.083Z,100870.78
2022-12-16T14:37:52.383Z,100867.72
2022-12-16T14:40:48.086Z,100850.94
2022-12-16T14:43:38.108Z,100853.75
2022-12-16T14:46:24.719Z,100784.38
2022-12-16T14:49:10.841Z,100874.72
2022-12-16T14:52:03.821Z,100877.66
2022-12-16T14:54:52.259Z,100887.97
2022-12-16T14:57:44.522Z,100880.09
2022-12-16T15:00:35.678Z,100892.41
2022-12-16T15:03:41.077Z,100891.53
2022-12-16T15:06:33.705Z,100878.44
2022-12-16T15:09:24.775Z,100700.25
2022-12-16T15:12:13.095Z,100890.75
2022-12-16T15:15:00.710Z,100864.19
2022-12-16T15:17:48.862Z,100900.81
2022-12-16T15:20:40.178Z,100850.22
2022-12-16T15:23:49.551Z,100859.47
2022-12-16T15:26:41.080Z,100872.19
2022-12-16T15:29:47.908Z,100912.88
2022-12-16T15:32:54.274Z,100918.63
2022-12-16T15:35:53.676Z,100841.16
2022-12-16T15:38:49.591Z,100933.34
2022-12-16T15:41:56.123Z,100928.78
2022-12-16T15:44:44.708Z,100930.03
2022-12-16T15:47:46.887Z,100818.53
2022-12-16T15:50:34.078Z,100923.56
2022-12-16T15:53:47.943Z,100932.09
2022-12-16T15:56:37.681Z,100901.19
2022-12-16T15:59:38.622Z,100907.03
2022-12-16T16:02:40.022Z,100811.56
2022-12-16T16:05:35.031Z,100915.69
2022-12-16T16:08:20.656Z,100912.91
2022-12-16T16:11:06.331Z,100929.03
2022-12-16T16:13:51.856Z,100917.34
2022-12-16T16:16:37.304Z,100923.69
2022-12-16T16:19:23.537Z,100926.38
2022-12-16T16:22:09.007Z,100906.75
2022-12-16T16:24:54.771Z,100908.41
2022-12-16T16:27:40.448Z,100915.28
2022-12-16T16:30:29.693Z,100916.03
2022-12-16T16:33:15.144Z,100898.63
2022-12-16T16:36:05.336Z,100912.38
2022-12-16T16:38:50.621Z,100913.13
2022-12-16T16:41:38.902Z,100912.75
2022-12-16T16:44:24.634Z,100911.09
2022-12-16T16:47:10.012Z,100912.47
2022-12-16T16:50:06.035Z,100909.91
2022-12-16T16:52:51.613Z,100864.63
2022-12-16T16:55:43.129Z,100927.09
2022-12-16T16:58:44.411Z,100918.19
2022-12-16T17:01:35.298Z,100927.88
2022-12-16T17:04:21.591Z,100777.16
2022-12-16T17:07:07.485Z,100926.59
2022-12-16T17:09:53.286Z,100932.19
2022-12-16T17:12:44.812Z,100914.88
2022-12-16T17:15:35.578Z,100921.91
2022-12-16T17:18:21.716Z,100924.44
2022-12-16T17:21:07.362Z,100925.97
2022-12-16T17:23:53.132Z,100923.56
2022-12-16T17:26:39.047Z,100916.16
2022-12-16T17:29:24.667Z,100896.19
2022-12-16T17:32:10.476Z,100810.41
2022-12-16T17:34:56.026Z,100933.34
2022-12-16T17:37:41.609Z,100892.13
2022-12-16T17:40:28.591Z,100935.13
2022-12-16T17:43:14.040Z,100933.34
2022-12-16T17:45:59.560Z,100925.97
2022-12-16T17:48:45.766Z,100911.84
2022-12-16T17:51:31.738Z,100887.53
2022-12-16T17:54:23.721Z,100929.28
2022-12-16T17:57:13.419Z,100933.59
2022-12-16T17:59:59.603Z,100941.47
2022-12-16T18:02:45.149Z,100877.84
2022-12-16T18:05:37.625Z,100951.50
2022-12-16T18:08:26.726Z,100961.06
2022-12-16T18:11:16.681Z,100948.63
2022-12-16T18:14:02.697Z,100915.56
2022-12-16T18:16:49.315Z,100951.28
2022-12-16T18:19:35.979Z,100976.34
2022-12-16T18:22:22.656Z,100952.31
2022-12-16T18:25:08.290Z,100965.91
2022-12-16T18:27:56.330Z,100961.06
2022-12-16T18:30:41.945Z,100953.31
2022-12-16T18:33:27.398Z,100976.88
2022-12-16T18:36:13.316Z,100976.72
2022-12-16T18:38:58.784Z,100960.31
2022-12-16T18:41:44.444Z,100980.16
2022-12-16T18:44:32.066Z,100969.47
2022-12-16T18:47:18.015Z,100979.94
2022-12-16T18:50:03.699Z,100968.47
2022-12-16T18:52:50.795Z,100969.25
2022-12-16T18:55:36.262Z,100965.66
2022-12-16T18:58:49.551Z,100964.78
2022-12-16T19:01:30.112Z,100906.88
2022-12-16T19:04:16.221Z,100964.13
2022-12-16T19:07:01.771Z,100944.28
2022-12-16T19:09:47.487Z,100972.00
2022-12-16T19:12:33.015Z,100979.53
2022-12-16T19:15:19.940Z,100975.84
2022-12-16T19:18:05.895Z,100978.00
2022-12-16T19:20:51.378Z,100946.22
2022-12-16T19:23:37.914Z,100999.75
2022-12-16T19:26:23.990Z,100983.75
2022-12-16T19:29:09.521Z,100995.44
2022-12-16T19:35:00.906Z,101023.81
2022-12-16T19:37:46.664Z,101027.59
2022-12-16T19:40:32.263Z,101029.91
2022-12-16T19:43:17.842Z,101021.09
2022-12-16T19:46:10.453Z,101032.81
2022-12-16T19:48:56.887Z,101049.34
2022-12-16T19:51:42.902Z,101066.28
2022-12-16T19:54:28.578Z,101052.50
2022-12-16T19:57:13.993Z,101076.78
2022-12-16T19:59:59.740Z,101065.03
2022-12-16T20:02:45.182Z,101078.88
2022-12-16T20:05:31.327Z,101079.56
2022-12-16T20:08:16.964Z,101094.97
2022-12-16T20:11:02.683Z,101086.09
2022-12-16T20:13:48.483Z,101008.16
2022-12-16T20:16:34.290Z,101082.03
2022-12-16T20:19:19.815Z,101076.69
2022-12-16T20:22:07.059Z,101081.91
2022-12-16T20:24:56.353Z,101052.88
2022-12-16T20:27:42.556Z,101081.88
2022-12-16T20:30:49.482Z,101012.50
2022-12-16T20:33:35.380Z,101088.94
2022-12-16T20:36:23.275Z,101079.81
2022-12-16T20:39:09.095Z,101077.03
2022-12-16T20:41:55.951Z,101068.63
2022-12-16T20:44:42.471Z,101047.94
2022-12-16T20:47:28.294Z,101039.31
2022-12-16T20:50:13.991Z,100989.16
2022-12-16T20:52:59.494Z,101030.69
2022-12-16T20:55:45.147Z,101027.84
2022-12-16T20:58:36.290Z,101053.47
2022-12-16T21:01:22.115Z,100973.19
2022-12-16T21:04:08.122Z,100990.22
2022-12-16T21:06:53.637Z,101063.94
2022-12-16T21:09:41.648Z,101046.94
2022-12-16T21:12:27.368Z,101051.44
2022-12-16T21:15:13.089Z,100859.63
2022-12-16T21:17:58.570Z,101050.91
2022-12-16T21:20:44.082Z,101043.53
2022-12-16T21:23:29.421Z,101035.09
2022-12-16T21:26:17.705Z,101030.91
2022-12-16T21:29:03.296Z,101021.97
2022-12-16T21:31:48.742Z,101018.25
2022-12-16T21:34:34.257Z,101008.06
2022-12-16T21:37:19.867Z,101027.31
2022-12-16T21:40:05.502Z,101022.56
2022-12-16T21:42:56.384Z,101032.41
2022-12-16T21:45:42.188Z,101032.03
2022-12-16T21:48:30.212Z,101027.28
2022-12-16T21:51:16.010Z,100996.50
2022-12-16T21:54:06.400Z,100963.16
2022-12-16T21:56:53.631Z,101030.69
2022-12-16T21:59:42.385Z,101041.63
2022-12-16T22:02:32.266Z,101027.78
2022-12-16T22:05:21.241Z,101031.50
2022-12-16T22:08:07.424Z,101022.00
2022-12-16T22:10:52.731Z,101007.91
2022-12-16T22:13:42.050Z,101003.19
2022-12-16T22:16:28.419Z,101023.03
2022-12-16T22:19:14.476Z,101014.00
2022-12-16T22:22:00.165Z,101016.66
2022-12-16T22:24:45.714Z,100990.41
2022-12-16T22:27:31.098Z,101007.75
2022-12-16T22:30:16.600Z,101019.31
2022-12-16T22:33:02.186Z,100987.38
2022-12-16T22:35:47.864Z,100950.31
2022-12-16T22:38:33.536Z,101013.03
2022-12-16T22:41:20.158Z,100946.72
2022-12-16T22:44:05.746Z,101008.50
2022-12-16T22:46:51.193Z,100987.22
2022-12-16T22:49:37.843Z,101004.31
2022-12-16T22:52:23.467Z,101030.78
2022-12-16T22:55:09.676Z,101023.53
2022-12-16T22:57:55.279Z,101037.41
2022-12-16T23:00:42.072Z,101029.53
2022-12-16T23:03:35.828Z,101030.38
2022-12-16T23:06:23.012Z,101034.56
2022-12-16T23:09:09.717Z,101006.41
2022-12-16T23:11:58.500Z,101040.66
2022-12-16T23:14:45.213Z,101028.81
2022-12-16T23:17:31.333Z,100964.88
2022-12-16T23:20:16.953Z,100986.75
2022-12-16T23:23:02.508Z,101032.53
2022-12-16T23:25:48.072Z,101012.78
2022-12-16T23:28:33.711Z,100979.59
2022-12-16T23:31:19.240Z,101033.66
2022-12-16T23:34:04.843Z,101018.56
2022-12-16T23:36:50.244Z,101014.13
2022-12-16T23:39:36.100Z,101027.50
2022-12-16T23:42:21.671Z,101029.47
2022-12-16T23:45:07.047Z,101028.56
2022-12-16T23:47:52.823Z,101029.59
2022-12-16T23:50:41.902Z,100982.59
2022-12-16T23:53:29.819Z,101018.19
2022-12-16T23:56:18.410Z,100932.75
2022-12-16T23:59:06.061Z,100984.69
